sensor_id;sensor_type;location;lat;lon;timestamp;temperature;humidity
22290;DHT22;11313;50.116;8.424;2023-07-20T00:01:14;23.10;58.90
22290;DHT22;11313;50.116;8.424;2023-07-20T00:03:40;23.10;58.80
22290;DHT22;11313;50.116;8.424;2023-07-20T00:06:05;23.10;58.80
22290;DHT22;11313;50.116;8.424;2023-07-20T00:08:31;23.10;58.90
22290;DHT22;11313;50.116;8.424;2023-07-20T00:10:56;23.10;58.90
22290;DHT22;11313;50.116;8.424;2023-07-20T00:13:22;23.10;58.80
22290;DHT22;11313;50.116;8.424;2023-07-20T00:15:48;23.10;58.80
22290;DHT22;11313;50.116;8.424;2023-07-20T00:18:13;23.10;58.80
22290;DHT22;11313;50.116;8.424;2023-07-20T00:20:39;23.10;58.80
22290;DHT22;11313;50.116;8.424;2023-07-20T00:23:05;23.20;58.80
22290;DHT22;11313;50.116;8.424;2023-07-20T00:25:30;23.10;58.80
22290;DHT22;11313;50.116;8.424;2023-07-20T00:27:56;23.20;58.80
22290;DHT22;11313;50.116;8.424;2023-07-20T00:30:21;23.20;58.80
22290;DHT22;11313;50.116;8.424;2023-07-20T00:32:47;23.10;58.80
22290;DHT22;11313;50.116;8.424;2023-07-20T00:35:13;23.20;58.80
22290;DHT22;11313;50.116;8.424;2023-07-20T00:37:39;23.20;58.80
22290;DHT22;11313;50.116;8.424;2023-07-20T00:40:05;23.20;58.80
22290;DHT22;11313;50.116;8.424;2023-07-20T00:42:32;23.20;58.80
22290;DHT22;11313;50.116;8.424;2023-07-20T00:44:58;23.20;58.70
22290;DHT22;11313;50.116;8.424;2023-07-20T00:47:23;23.30;58.80
22290;DHT22;11313;50.116;8.424;2023-07-20T00:49:50;23.20;58.70
22290;DHT22;11313;50.116;8.424;2023-07-20T00:52:16;23.20;58.70
22290;DHT22;11313;50.116;8.424;2023-07-20T00:54:44;23.20;58.70
22290;DHT22;11313;50.116;8.424;2023-07-20T00:57:10;23.20;58.70
22290;DHT22;11313;50.116;8.424;2023-07-20T00:59:39;23.20;58.70
22290;DHT22;11313;50.116;8.424;2023-07-20T01:02:05;23.20;58.70
22290;DHT22;11313;50.116;8.424;2023-07-20T01:04:30;23.20;58.70
22290;DHT22;11313;50.116;8.424;2023-07-20T01:07:23;23.20;58.60
22290;DHT22;11313;50.116;8.424;2023-07-20T01:10:10;23.20;58.60
22290;DHT22;11313;50.116;8.424;2023-07-20T01:12:41;23.20;58.60
22290;DHT22;11313;50.116;8.424;2023-07-20T01:15:08;23.20;58.60
22290;DHT22;11313;50.116;8.424;2023-07-20T01:17:34;23.20;58.60
22290;DHT22;11313;50.116;8.424;2023-07-20T01:20:00;23.20;58.60
22290;DHT22;11313;50.116;8.424;2023-07-20T01:26:08;23.20;59.20
22290;DHT22;11313;50.116;8.424;2023-07-20T01:31:17;23.20;58.50
22290;DHT22;11313;50.116;8.424;2023-07-20T01:33:43;23.30;58.50
22290;DHT22;11313;50.116;8.424;2023-07-20T01:38:44;23.20;58.50
22290;DHT22;11313;50.116;8.424;2023-07-20T01:41:10;23.30;58.50
22290;DHT22;11313;50.116;8.424;2023-07-20T01:43:36;23.20;58.50
22290;DHT22;11313;50.116;8.424;2023-07-20T01:46:02;23.30;58.50
22290;DHT22;11313;50.116;8.424;2023-07-20T01:48:27;23.20;58.50
22290;DHT22;11313;50.116;8.424;2023-07-20T01:50:53;23.30;59.10
22290;DHT22;11313;50.116;8.424;2023-07-20T01:53:20;23.30;58.50
22290;DHT22;11313;50.116;8.424;2023-07-20T01:55:45;23.30;58.50
22290;DHT22;11313;50.116;8.424;2023-07-20T01:58:11;23.30;58.40
22290;DHT22;11313;50.116;8.424;2023-07-20T02:00:39;23.30;58.40
22290;DHT22;11313;50.116;8.424;2023-07-20T02:03:05;23.30;58.50
22290;DHT22;11313;50.116;8.424;2023-07-20T02:05:30;23.30;58.40
22290;DHT22;11313;50.116;8.424;2023-07-20T02:07:56;23.30;58.40
22290;DHT22;11313;50.116;8.424;2023-07-20T02:10:22;23.30;58.40
22290;DHT22;11313;50.116;8.424;2023-07-20T02:12:47;23.30;58.40
22290;DHT22;11313;50.116;8.424;2023-07-20T02:15:15;23.30;58.40
22290;DHT22;11313;50.116;8.424;2023-07-20T02:17:42;23.30;58.40
22290;DHT22;11313;50.116;8.424;2023-07-20T02:20:09;23.30;58.40
22290;DHT22;11313;50.116;8.424;2023-07-20T02:22:36;23.30;58.30
22290;DHT22;11313;50.116;8.424;2023-07-20T02:25:05;23.30;58.30
22290;DHT22;11313;50.116;8.424;2023-07-20T02:27:35;23.30;58.30
22290;DHT22;11313;50.116;8.424;2023-07-20T02:30:01;23.30;58.30
22290;DHT22;11313;50.116;8.424;2023-07-20T02:32:27;23.30;58.30
22290;DHT22;11313;50.116;8.424;2023-07-20T02:34:52;23.30;58.30
22290;DHT22;11313;50.116;8.424;2023-07-20T02:37:18;23.30;58.30
22290;DHT22;11313;50.116;8.424;2023-07-20T02:39:43;23.30;58.30
22290;DHT22;11313;50.116;8.424;2023-07-20T02:42:09;23.30;58.30
22290;DHT22;11313;50.116;8.424;2023-07-20T02:44:34;23.30;58.30
22290;DHT22;11313;50.116;8.424;2023-07-20T02:47:00;23.30;58.30
22290;DHT22;11313;50.116;8.424;2023-07-20T02:49:26;23.30;58.30
22290;DHT22;11313;50.116;8.424;2023-07-20T02:51:52;23.30;58.20
22290;DHT22;11313;50.116;8.424;2023-07-20T02:54:17;23.30;58.20
22290;DHT22;11313;50.116;8.424;2023-07-20T02:56:43;23.30;58.20
22290;DHT22;11313;50.116;8.424;2023-07-20T02:59:08;23.30;58.20
22290;DHT22;11313;50.116;8.424;2023-07-20T03:01:34;23.30;58.20
22290;DHT22;11313;50.116;8.424;2023-07-20T03:03:59;23.30;58.20
22290;DHT22;11313;50.116;8.424;2023-07-20T03:06:25;23.30;58.20
22290;DHT22;11313;50.116;8.424;2023-07-20T03:08:50;23.20;58.20
22290;DHT22;11313;50.116;8.424;2023-07-20T03:11:19;23.20;58.10
22290;DHT22;11313;50.116;8.424;2023-07-20T03:13:45;23.30;58.20
22290;DHT22;11313;50.116;8.424;2023-07-20T03:16:13;23.30;58.20
22290;DHT22;11313;50.116;8.424;2023-07-20T03:18:41;23.30;58.10
22290;DHT22;11313;50.116;8.424;2023-07-20T03:21:07;23.30;58.10
22290;DHT22;11313;50.116;8.424;2023-07-20T03:23:33;23.30;58.10
22290;DHT22;11313;50.116;8.424;2023-07-20T03:25:59;23.30;58.10
22290;DHT22;11313;50.116;8.424;2023-07-20T03:28:24;23.30;58.10
22290;DHT22;11313;50.116;8.424;2023-07-20T03:30:57;23.40;58.20
22290;DHT22;11313;50.116;8.424;2023-07-20T03:33:25;23.30;58.10
22290;DHT22;11313;50.116;8.424;2023-07-20T03:35:51;23.30;58.10
22290;DHT22;11313;50.116;8.424;2023-07-20T03:38:16;23.30;58.10
22290;DHT22;11313;50.116;8.424;2023-07-20T03:40:55;23.30;58.10
22290;DHT22;11313;50.116;8.424;2023-07-20T03:43:21;23.40;58.10
22290;DHT22;11313;50.116;8.424;2023-07-20T03:45:47;23.30;58.10
22290;DHT22;11313;50.116;8.424;2023-07-20T03:48:17;23.40;58.10
22290;DHT22;11313;50.116;8.424;2023-07-20T03:50:44;23.40;58.10
22290;DHT22;11313;50.116;8.424;2023-07-20T03:53:11;23.30;58.00
22290;DHT22;11313;50.116;8.424;2023-07-20T03:55:36;23.40;58.00
22290;DHT22;11313;50.116;8.424;2023-07-20T03:58:02;23.40;58.00
22290;DHT22;11313;50.116;8.424;2023-07-20T04:00:28;23.40;58.00
22290;DHT22;11313;50.116;8.424;2023-07-20T04:02:54;23.40;58.10
22290;DHT22;11313;50.116;8.424;2023-07-20T04:05:19;23.40;58.00
22290;DHT22;11313;50.116;8.424;2023-07-20T04:07:45;23.30;58.00
22290;DHT22;11313;50.116;8.424;2023-07-20T04:10:11;23.40;58.00
22290;DHT22;11313;50.116;8.424;2023-07-20T04:12:36;23.40;58.00
22290;DHT22;11313;50.116;8.424;2023-07-20T04:15:02;23.40;58.00
22290;DHT22;11313;50.116;8.424;2023-07-20T04:17:29;23.40;58.00
22290;DHT22;11313;50.116;8.424;2023-07-20T04:19:54;23.40;58.00
22290;DHT22;11313;50.116;8.424;2023-07-20T04:22:20;23.40;58.00
22290;DHT22;11313;50.116;8.424;2023-07-20T04:24:46;23.40;57.90
22290;DHT22;11313;50.116;8.424;2023-07-20T04:27:11;23.40;57.90
22290;DHT22;11313;50.116;8.424;2023-07-20T04:29:37;23.40;57.90
22290;DHT22;11313;50.116;8.424;2023-07-20T04:32:03;23.40;57.90
22290;DHT22;11313;50.116;8.424;2023-07-20T04:34:28;23.50;57.90
22290;DHT22;11313;50.116;8.424;2023-07-20T04:36:54;23.50;57.80
22290;DHT22;11313;50.116;8.424;2023-07-20T04:39:19;23.50;57.90
22290;DHT22;11313;50.116;8.424;2023-07-20T04:41:44;23.50;57.90
22290;DHT22;11313;50.116;8.424;2023-07-20T04:44:10;23.50;57.90
22290;DHT22;11313;50.116;8.424;2023-07-20T04:46:36;23.50;58.00
22290;DHT22;11313;50.116;8.424;2023-07-20T04:49:01;23.50;58.00
22290;DHT22;11313;50.116;8.424;2023-07-20T04:51:27;23.50;58.00
22290;DHT22;11313;50.116;8.424;2023-07-20T04:53:54;23.60;58.10
22290;DHT22;11313;50.116;8.424;2023-07-20T04:56:20;23.60;58.10
22290;DHT22;11313;50.116;8.424;2023-07-20T04:58:48;23.60;58.10
22290;DHT22;11313;50.116;8.424;2023-07-20T05:01:14;23.60;58.10
22290;DHT22;11313;50.116;8.424;2023-07-20T05:03:39;23.70;58.10
22290;DHT22;11313;50.116;8.424;2023-07-20T05:06:05;23.70;58.10
22290;DHT22;11313;50.116;8.424;2023-07-20T05:08:30;23.70;58.00
22290;DHT22;11313;50.116;8.424;2023-07-20T05:10:56;23.70;58.00
22290;DHT22;11313;50.116;8.424;2023-07-20T05:13:21;23.80;58.00
22290;DHT22;11313;50.116;8.424;2023-07-20T05:15:46;23.80;58.00
22290;DHT22;11313;50.116;8.424;2023-07-20T05:18:12;23.80;58.10
22290;DHT22;11313;50.116;8.424;2023-07-20T05:20:38;23.80;58.00
22290;DHT22;11313;50.116;8.424;2023-07-20T05:23:03;23.80;58.10
22290;DHT22;11313;50.116;8.424;2023-07-20T05:25:29;23.90;58.10
22290;DHT22;11313;50.116;8.424;2023-07-20T05:27:54;23.90;58.10
22290;DHT22;11313;50.116;8.424;2023-07-20T05:30:20;23.90;58.10
22290;DHT22;11313;50.116;8.424;2023-07-20T05:32:46;23.90;58.20
22290;DHT22;11313;50.116;8.424;2023-07-20T05:35:19;23.90;58.10
22290;DHT22;11313;50.116;8.424;2023-07-20T05:37:45;23.90;58.10
22290;DHT22;11313;50.116;8.424;2023-07-20T05:40:11;24.00;58.00
22290;DHT22;11313;50.116;8.424;2023-07-20T05:42:38;24.00;58.00
22290;DHT22;11313;50.116;8.424;2023-07-20T05:45:03;24.00;58.00
22290;DHT22;11313;50.116;8.424;2023-07-20T05:47:29;24.10;57.90
22290;DHT22;11313;50.116;8.424;2023-07-20T05:49:54;24.10;57.90
22290;DHT22;11313;50.116;8.424;2023-07-20T05:52:20;24.10;57.90
22290;DHT22;11313;50.116;8.424;2023-07-20T05:54:45;24.10;57.80
22290;DHT22;11313;50.116;8.424;2023-07-20T05:57:11;24.10;57.70
22290;DHT22;11313;50.116;8.424;2023-07-20T05:59:36;24.10;57.70
22290;DHT22;11313;50.116;8.424;2023-07-20T06:02:03;24.10;57.60
22290;DHT22;11313;50.116;8.424;2023-07-20T06:04:29;24.20;57.70
22290;DHT22;11313;50.116;8.424;2023-07-20T06:06:54;24.20;57.70
22290;DHT22;11313;50.116;8.424;2023-07-20T06:09:20;24.20;57.60
22290;DHT22;11313;50.116;8.424;2023-07-20T06:11:45;24.20;57.60
22290;DHT22;11313;50.116;8.424;2023-07-20T06:14:11;24.20;57.50
22290;DHT22;11313;50.116;8.424;2023-07-20T06:16:37;24.20;57.50
22290;DHT22;11313;50.116;8.424;2023-07-20T06:19:02;24.20;57.50
22290;DHT22;11313;50.116;8.424;2023-07-20T06:21:28;24.20;57.50
22290;DHT22;11313;50.116;8.424;2023-07-20T06:23:53;24.20;57.50
22290;DHT22;11313;50.116;8.424;2023-07-20T06:26:18;24.20;57.40
22290;DHT22;11313;50.116;8.424;2023-07-20T06:28:45;24.20;57.40
22290;DHT22;11313;50.116;8.424;2023-07-20T06:31:10;24.20;57.30
22290;DHT22;11313;50.116;8.424;2023-07-20T06:33:36;24.20;57.30
22290;DHT22;11313;50.116;8.424;2023-07-20T06:36:02;24.20;57.30
22290;DHT22;11313;50.116;8.424;2023-07-20T06:38:28;24.20;57.30
22290;DHT22;11313;50.116;8.424;2023-07-20T06:40:54;24.30;57.30
22290;DHT22;11313;50.116;8.424;2023-07-20T06:43:20;24.20;57.20
22290;DHT22;11313;50.116;8.424;2023-07-20T06:45:51;24.30;57.30
22290;DHT22;11313;50.116;8.424;2023-07-20T06:48:18;24.30;57.20
22290;DHT22;11313;50.116;8.424;2023-07-20T06:50:43;24.30;57.30
22290;DHT22;11313;50.116;8.424;2023-07-20T06:53:08;24.30;57.20
22290;DHT22;11313;50.116;8.424;2023-07-20T06:55:34;24.30;57.20
22290;DHT22;11313;50.116;8.424;2023-07-20T06:57:59;24.30;57.20
22290;DHT22;11313;50.116;8.424;2023-07-20T07:00:25;24.30;57.10
22290;DHT22;11313;50.116;8.424;2023-07-20T07:02:50;24.30;57.00
22290;DHT22;11313;50.116;8.424;2023-07-20T07:05:16;24.30;57.00
22290;DHT22;11313;50.116;8.424;2023-07-20T07:07:41;24.40;57.10
22290;DHT22;11313;50.116;8.424;2023-07-20T07:10:07;24.40;57.10
22290;DHT22;11313;50.116;8.424;2023-07-20T07:12:33;24.40;57.00
22290;DHT22;11313;50.116;8.424;2023-07-20T07:15:00;24.40;57.00
22290;DHT22;11313;50.116;8.424;2023-07-20T07:17:25;24.40;57.00
22290;DHT22;11313;50.116;8.424;2023-07-20T07:19:52;24.40;56.90
22290;DHT22;11313;50.116;8.424;2023-07-20T07:22:20;24.40;56.90
22290;DHT22;11313;50.116;8.424;2023-07-20T07:24:46;24.40;56.80
22290;DHT22;11313;50.116;8.424;2023-07-20T07:27:12;24.40;56.80
22290;DHT22;11313;50.116;8.424;2023-07-20T07:29:37;24.40;56.80
22290;DHT22;11313;50.116;8.424;2023-07-20T07:32:03;24.40;56.80
22290;DHT22;11313;50.116;8.424;2023-07-20T07:34:29;24.40;56.80
22290;DHT22;11313;50.116;8.424;2023-07-20T07:36:54;24.40;56.70
22290;DHT22;11313;50.116;8.424;2023-07-20T07:39:20;24.40;56.70
22290;DHT22;11313;50.116;8.424;2023-07-20T07:41:45;24.50;56.80
22290;DHT22;11313;50.116;8.424;2023-07-20T07:44:11;24.40;56.60
22290;DHT22;11313;50.116;8.424;2023-07-20T07:46:37;24.50;56.70
22290;DHT22;11313;50.116;8.424;2023-07-20T07:49:02;24.50;56.80
22290;DHT22;11313;50.116;8.424;2023-07-20T07:51:28;24.50;56.70
22290;DHT22;11313;50.116;8.424;2023-07-20T07:53:54;24.50;56.70
22290;DHT22;11313;50.116;8.424;2023-07-20T07:56:19;24.50;56.60
22290;DHT22;11313;50.116;8.424;2023-07-20T07:58:48;24.50;57.20
22290;DHT22;11313;50.116;8.424;2023-07-20T08:01:14;24.50;56.60
22290;DHT22;11313;50.116;8.424;2023-07-20T08:03:40;24.50;56.60
22290;DHT22;11313;50.116;8.424;2023-07-20T08:06:05;24.50;56.60
22290;DHT22;11313;50.116;8.424;2023-07-20T08:08:32;24.50;56.50
22290;DHT22;11313;50.116;8.424;2023-07-20T08:10:58;24.50;56.50
22290;DHT22;11313;50.116;8.424;2023-07-20T08:13:23;24.50;56.50
22290;DHT22;11313;50.116;8.424;2023-07-20T08:15:50;24.50;56.40
22290;DHT22;11313;50.116;8.424;2023-07-20T08:18:19;24.60;56.50
22290;DHT22;11313;50.116;8.424;2023-07-20T08:20:45;24.60;56.50
22290;DHT22;11313;50.116;8.424;2023-07-20T08:23:14;24.50;56.40
22290;DHT22;11313;50.116;8.424;2023-07-20T08:25:40;24.60;56.40
22290;DHT22;11313;50.116;8.424;2023-07-20T08:28:17;24.60;56.40
22290;DHT22;11313;50.116;8.424;2023-07-20T08:30:47;24.60;56.40
22290;DHT22;11313;50.116;8.424;2023-07-20T08:33:14;24.60;56.40
22290;DHT22;11313;50.116;8.424;2023-07-20T08:35:40;24.60;56.40
22290;DHT22;11313;50.116;8.424;2023-07-20T08:38:06;24.60;56.30
22290;DHT22;11313;50.116;8.424;2023-07-20T08:40:33;24.60;56.30
22290;DHT22;11313;50.116;8.424;2023-07-20T08:42:59;24.60;56.30
22290;DHT22;11313;50.116;8.424;2023-07-20T08:45:28;24.70;56.30
22290;DHT22;11313;50.116;8.424;2023-07-20T08:47:58;24.60;56.20
22290;DHT22;11313;50.116;8.424;2023-07-20T08:50:28;24.60;56.20
22290;DHT22;11313;50.116;8.424;2023-07-20T08:52:57;24.60;56.20
22290;DHT22;11313;50.116;8.424;2023-07-20T08:55:24;24.70;56.30
22290;DHT22;11313;50.116;8.424;2023-07-20T08:57:55;24.70;56.20
22290;DHT22;11313;50.116;8.424;2023-07-20T09:00:22;24.70;56.30
22290;DHT22;11313;50.116;8.424;2023-07-20T09:02:53;24.70;56.20
22290;DHT22;11313;50.116;8.424;2023-07-20T09:05:23;24.70;56.30
22290;DHT22;11313;50.116;8.424;2023-07-20T09:07:50;24.70;56.20
22290;DHT22;11313;50.116;8.424;2023-07-20T09:10:16;24.70;56.20
22290;DHT22;11313;50.116;8.424;2023-07-20T09:12:42;24.70;56.20
22290;DHT22;11313;50.116;8.424;2023-07-20T09:15:10;24.70;56.20
22290;DHT22;11313;50.116;8.424;2023-07-20T09:17:36;24.70;56.20
22290;DHT22;11313;50.116;8.424;2023-07-20T09:20:04;24.70;56.10
22290;DHT22;11313;50.116;8.424;2023-07-20T09:22:33;24.70;56.10
22290;DHT22;11313;50.116;8.424;2023-07-20T09:24:59;24.70;56.10
22290;DHT22;11313;50.116;8.424;2023-07-20T09:27:44;24.70;56.10
22290;DHT22;11313;50.116;8.424;2023-07-20T09:30:11;24.70;56.10
22290;DHT22;11313;50.116;8.424;2023-07-20T09:32:49;24.70;56.10
22290;DHT22;11313;50.116;8.424;2023-07-20T09:35:20;24.70;56.10
22290;DHT22;11313;50.116;8.424;2023-07-20T09:37:48;24.80;56.10
22290;DHT22;11313;50.116;8.424;2023-07-20T09:40:17;24.70;56.10
22290;DHT22;11313;50.116;8.424;2023-07-20T09:42:43;24.80;56.10
22290;DHT22;11313;50.116;8.424;2023-07-20T09:45:12;24.80;56.10
22290;DHT22;11313;50.116;8.424;2023-07-20T09:47:38;24.80;56.00
22290;DHT22;11313;50.116;8.424;2023-07-20T09:50:05;24.80;56.00
22290;DHT22;11313;50.116;8.424;2023-07-20T09:52:39;24.80;56.00
22290;DHT22;11313;50.116;8.424;2023-07-20T09:55:10;24.80;56.00
22290;DHT22;11313;50.116;8.424;2023-07-20T09:57:37;24.80;56.00
22290;DHT22;11313;50.116;8.424;2023-07-20T10:00:04;24.80;56.00
22290;DHT22;11313;50.116;8.424;2023-07-20T10:02:37;24.80;56.00
22290;DHT22;11313;50.116;8.424;2023-07-20T10:05:05;24.80;55.90
22290;DHT22;11313;50.116;8.424;2023-07-20T10:07:31;24.80;55.90
22290;DHT22;11313;50.116;8.424;2023-07-20T10:09:59;24.80;55.90
22290;DHT22;11313;50.116;8.424;2023-07-20T10:12:27;24.80;55.90
22290;DHT22;11313;50.116;8.424;2023-07-20T10:15:10;24.80;55.90
22290;DHT22;11313;50.116;8.424;2023-07-20T10:17:43;24.80;55.90
22290;DHT22;11313;50.116;8.424;2023-07-20T10:20:16;24.80;55.90
22290;DHT22;11313;50.116;8.424;2023-07-20T10:22:43;24.80;55.90
22290;DHT22;11313;50.116;8.424;2023-07-20T10:25:10;24.90;56.00
22290;DHT22;11313;50.116;8.424;2023-07-20T10:27:36;24.90;56.00
22290;DHT22;11313;50.116;8.424;2023-07-20T10:30:03;24.80;55.90
22290;DHT22;11313;50.116;8.424;2023-07-20T10:32:29;24.90;55.90
22290;DHT22;11313;50.116;8.424;2023-07-20T10:34:56;24.90;56.00
22290;DHT22;11313;50.116;8.424;2023-07-20T10:37:49;24.90;56.00
22290;DHT22;11313;50.116;8.424;2023-07-20T10:40:26;24.80;55.90
22290;DHT22;11313;50.116;8.424;2023-07-20T10:42:57;24.90;55.90
22290;DHT22;11313;50.116;8.424;2023-07-20T10:45:48;24.90;55.90
22290;DHT22;11313;50.116;8.424;2023-07-20T10:48:16;24.90;55.90
22290;DHT22;11313;50.116;8.424;2023-07-20T10:50:42;24.90;55.90
22290;DHT22;11313;50.116;8.424;2023-07-20T10:53:16;24.90;55.80
22290;DHT22;11313;50.116;8.424;2023-07-20T10:55:42;24.90;55.90
22290;DHT22;11313;50.116;8.424;2023-07-20T10:58:13;24.90;55.80
22290;DHT22;11313;50.116;8.424;2023-07-20T11:01:00;24.90;55.90
22290;DHT22;11313;50.116;8.424;2023-07-20T11:03:27;24.90;55.80
22290;DHT22;11313;50.116;8.424;2023-07-20T11:05:53;24.90;55.90
22290;DHT22;11313;50.116;8.424;2023-07-20T11:08:38;24.90;55.80
22290;DHT22;11313;50.116;8.424;2023-07-20T11:11:27;24.90;55.80
22290;DHT22;11313;50.116;8.424;2023-07-20T11:13:54;24.90;56.40
22290;DHT22;11313;50.116;8.424;2023-07-20T11:16:35;24.90;55.80
22290;DHT22;11313;50.116;8.424;2023-07-20T11:19:05;24.90;55.80
22290;DHT22;11313;50.116;8.424;2023-07-20T11:21:41;24.90;55.80
22290;DHT22;11313;50.116;8.424;2023-07-20T11:24:07;24.90;55.80
22290;DHT22;11313;50.116;8.424;2023-07-20T11:27:03;24.90;55.80
22290;DHT22;11313;50.116;8.424;2023-07-20T11:29:29;24.90;55.80
22290;DHT22;11313;50.116;8.424;2023-07-20T11:31:56;24.90;55.80
22290;DHT22;11313;50.116;8.424;2023-07-20T11:34:21;25.00;55.80
22290;DHT22;11313;50.116;8.424;2023-07-20T11:36:49;24.90;55.80
22290;DHT22;11313;50.116;8.424;2023-07-20T11:39:16;24.90;55.80
22290;DHT22;11313;50.116;8.424;2023-07-20T11:41:47;24.90;55.70
22290;DHT22;11313;50.116;8.424;2023-07-20T11:44:13;24.90;55.80
22290;DHT22;11313;50.116;8.424;2023-07-20T11:46:41;25.00;55.80
22290;DHT22;11313;50.116;8.424;2023-07-20T11:49:07;24.90;55.80
22290;DHT22;11313;50.116;8.424;2023-07-20T11:51:34;25.00;55.80
22290;DHT22;11313;50.116;8.424;2023-07-20T11:54:01;25.00;55.80
22290;DHT22;11313;50.116;8.424;2023-07-20T11:56:27;25.00;55.80
22290;DHT22;11313;50.116;8.424;2023-07-20T11:58:57;24.90;55.80
22290;DHT22;11313;50.116;8.424;2023-07-20T12:01:26;25.00;55.80
22290;DHT22;11313;50.116;8.424;2023-07-20T12:03:59;25.00;55.80
22290;DHT22;11313;50.116;8.424;2023-07-20T12:06:25;25.00;55.80
22290;DHT22;11313;50.116;8.424;2023-07-20T12:08:54;25.00;55.80
22290;DHT22;11313;50.116;8.424;2023-07-20T12:11:32;25.00;55.80
22290;DHT22;11313;50.116;8.424;2023-07-20T12:13:58;25.00;55.80
22290;DHT22;11313;50.116;8.424;2023-07-20T12:16:27;25.00;55.80
22290;DHT22;11313;50.116;8.424;2023-07-20T12:19:00;25.00;55.80
22290;DHT22;11313;50.116;8.424;2023-07-20T12:21:26;25.00;55.80
22290;DHT22;11313;50.116;8.424;2023-07-20T12:23:51;25.00;55.80
22290;DHT22;11313;50.116;8.424;2023-07-20T12:26:17;25.00;55.80
22290;DHT22;11313;50.116;8.424;2023-07-20T12:28:42;25.00;55.80
22290;DHT22;11313;50.116;8.424;2023-07-20T12:31:09;25.00;55.80
22290;DHT22;11313;50.116;8.424;2023-07-20T12:33:36;25.00;55.80
22290;DHT22;11313;50.116;8.424;2023-07-20T12:36:02;25.00;55.80
22290;DHT22;11313;50.116;8.424;2023-07-20T12:38:27;25.00;55.80
22290;DHT22;11313;50.116;8.424;2023-07-20T12:40:54;25.00;55.80
22290;DHT22;11313;50.116;8.424;2023-07-20T12:43:22;25.00;55.80
22290;DHT22;11313;50.116;8.424;2023-07-20T12:45:48;25.00;55.80
22290;DHT22;11313;50.116;8.424;2023-07-20T12:48:13;25.00;55.80
22290;DHT22;11313;50.116;8.424;2023-07-20T12:50:39;25.00;55.70
22290;DHT22;11313;50.116;8.424;2023-07-20T12:53:05;25.00;55.70
22290;DHT22;11313;50.116;8.424;2023-07-20T12:55:31;25.00;55.70
22290;DHT22;11313;50.116;8.424;2023-07-20T12:57:56;25.00;55.80
22290;DHT22;11313;50.116;8.424;2023-07-20T13:00:22;25.00;55.80
22290;DHT22;11313;50.116;8.424;2023-07-20T13:02:49;25.00;55.70
22290;DHT22;11313;50.116;8.424;2023-07-20T13:05:15;25.00;55.70
22290;DHT22;11313;50.116;8.424;2023-07-20T13:07:40;25.00;55.80
22290;DHT22;11313;50.116;8.424;2023-07-20T13:10:07;25.00;55.70
22290;DHT22;11313;50.116;8.424;2023-07-20T13:12:34;25.00;55.70
22290;DHT22;11313;50.116;8.424;2023-07-20T13:15:05;25.00;55.70
22290;DHT22;11313;50.116;8.424;2023-07-20T13:17:34;25.00;55.70
22290;DHT22;11313;50.116;8.424;2023-07-20T13:20:01;25.10;55.80
22290;DHT22;11313;50.116;8.424;2023-07-20T13:22:26;25.00;55.70
22290;DHT22;11313;50.116;8.424;2023-07-20T13:24:52;25.10;55.80
22290;DHT22;11313;50.116;8.424;2023-07-20T13:27:18;25.10;55.80
22290;DHT22;11313;50.116;8.424;2023-07-20T13:29:44;25.10;55.80
22290;DHT22;11313;50.116;8.424;2023-07-20T13:32:12;25.10;55.80
22290;DHT22;11313;50.116;8.424;2023-07-20T13:34:38;25.10;55.70
22290;DHT22;11313;50.116;8.424;2023-07-20T13:37:04;25.00;55.70
22290;DHT22;11313;50.116;8.424;2023-07-20T13:39:29;25.10;55.70
22290;DHT22;11313;50.116;8.424;2023-07-20T13:41:55;25.10;55.70
22290;DHT22;11313;50.116;8.424;2023-07-20T13:44:21;25.00;55.70
22290;DHT22;11313;50.116;8.424;2023-07-20T13:46:47;25.10;55.70
22290;DHT22;11313;50.116;8.424;2023-07-20T13:49:13;25.00;55.70
22290;DHT22;11313;50.116;8.424;2023-07-20T13:51:39;25.10;55.70
22290;DHT22;11313;50.116;8.424;2023-07-20T13:54:05;25.10;55.80
22290;DHT22;11313;50.116;8.424;2023-07-20T13:56:31;25.10;55.70
22290;DHT22;11313;50.116;8.424;2023-07-20T13:58:57;25.00;55.70
22290;DHT22;11313;50.116;8.424;2023-07-20T14:01:23;25.10;55.70
22290;DHT22;11313;50.116;8.424;2023-07-20T14:03:50;25.10;55.70
22290;DHT22;11313;50.116;8.424;2023-07-20T14:06:15;25.10;55.70
22290;DHT22;11313;50.116;8.424;2023-07-20T14:08:41;25.10;55.70
22290;DHT22;11313;50.116;8.424;2023-07-20T14:11:07;25.10;55.70
22290;DHT22;11313;50.116;8.424;2023-07-20T14:13:33;25.10;55.70
22290;DHT22;11313;50.116;8.424;2023-07-20T14:15:58;25.10;55.70
22290;DHT22;11313;50.116;8.424;2023-07-20T14:18:24;25.10;55.70
22290;DHT22;11313;50.116;8.424;2023-07-20T14:20:50;25.10;55.70
22290;DHT22;11313;50.116;8.424;2023-07-20T14:23:15;25.10;55.60
22290;DHT22;11313;50.116;8.424;2023-07-20T14:25:41;25.10;55.60
22290;DHT22;11313;50.116;8.424;2023-07-20T14:28:07;25.10;55.60
22290;DHT22;11313;50.116;8.424;2023-07-20T14:30:33;25.10;55.60
22290;DHT22;11313;50.116;8.424;2023-07-20T14:32:59;25.10;55.60
22290;DHT22;11313;50.116;8.424;2023-07-20T14:35:24;25.10;55.60
22290;DHT22;11313;50.116;8.424;2023-07-20T14:37:50;25.10;55.60
22290;DHT22;11313;50.116;8.424;2023-07-20T14:40:15;25.10;55.60
22290;DHT22;11313;50.116;8.424;2023-07-20T14:42:41;25.10;55.70
22290;DHT22;11313;50.116;8.424;2023-07-20T14:45:06;25.10;55.60
22290;DHT22;11313;50.116;8.424;2023-07-20T14:47:33;25.10;55.60
22290;DHT22;11313;50.116;8.424;2023-07-20T14:50:01;25.10;55.60
22290;DHT22;11313;50.116;8.424;2023-07-20T14:52:28;25.10;55.60
22290;DHT22;11313;50.116;8.424;2023-07-20T14:54:53;25.10;55.60
22290;DHT22;11313;50.116;8.424;2023-07-20T14:57:19;25.10;55.60
22290;DHT22;11313;50.116;8.424;2023-07-20T14:59:46;25.10;55.60
22290;DHT22;11313;50.116;8.424;2023-07-20T15:02:11;25.10;55.60
22290;DHT22;11313;50.116;8.424;2023-07-20T15:04:37;25.10;55.60
22290;DHT22;11313;50.116;8.424;2023-07-20T15:07:03;25.10;55.60
22290;DHT22;11313;50.116;8.424;2023-07-20T15:09:28;25.10;55.50
22290;DHT22;11313;50.116;8.424;2023-07-20T15:11:54;25.10;55.50
22290;DHT22;11313;50.116;8.424;2023-07-20T15:14:19;25.10;55.60
22290;DHT22;11313;50.116;8.424;2023-07-20T15:16:45;25.10;55.50
22290;DHT22;11313;50.116;8.424;2023-07-20T15:19:11;25.10;55.50
22290;DHT22;11313;50.116;8.424;2023-07-20T15:21:38;25.10;55.50
22290;DHT22;11313;50.116;8.424;2023-07-20T15:24:04;25.10;55.50
22290;DHT22;11313;50.116;8.424;2023-07-20T15:26:30;25.10;55.50
22290;DHT22;11313;50.116;8.424;2023-07-20T15:28:56;25.10;55.50
22290;DHT22;11313;50.116;8.424;2023-07-20T15:31:23;25.10;55.50
22290;DHT22;11313;50.116;8.424;2023-07-20T15:33:48;25.10;55.40
22290;DHT22;11313;50.116;8.424;2023-07-20T15:36:14;25.10;55.50
22290;DHT22;11313;50.116;8.424;2023-07-20T15:38:39;25.20;55.50